Weather reports worldwide

Advertisment
Oberstdorf, Germany (10948): temperature & dewpoint: 10.07.2018 18:00:00 - 16.07.2018 18:00:00 (CEST)Oberstdorf, Germany (10948): temperature 5cm & temperature -5cm: 10.07.2018 18:00:00 - 16.07.2018 18:00:00 (CEST)Oberstdorf, Germany (10948): temperature -20cm & temperature -100cm: 10.07.2018 18:00:00 - 16.07.2018 18:00:00 (CEST)Oberstdorf, Germany (10948): wind speed & gusts: 10.07.2018 18:00:00 - 16.07.2018 18:00:00 (CEST)Oberstdorf, Germany (10948): wind direction: 10.07.2018 18:00:00 - 16.07.2018 18:00:00 (CEST)Oberstdorf, Germany (10948): visibility: 10.07.2018 18:00:00 - 16.07.2018 18:00:00 (CEST)Oberstdorf, Germany (10948): sunshine duration: 10.07.2018 18:00:00 - 16.07.2018 18:00:00 (CEST)Oberstdorf, Germany (10948): precipitation: 10.07.2018 18:00:00 - 16.07.2018 18:00:00 (CEST)
Date & Time tt [°C] td [°C] tt 5cm [°C] tt -5cm [°C] tt -20cm [°C] tt -100cm [°C] ff [km/h] ff [kn] fx [km/h] fx [kn] dd vv [km] sd [min] rr [mm]
16.07.2018 18:00:00 22,7 11,2 22,8 21,0 19,0 17,0 18 10 26 14 N 52 12 0,0
16.07.2018 17:00:00 24,2 10,0 25,3 20,8 18,8 17,0 13 7 20 11 N 70 6 0,0
16.07.2018 16:00:00 23,2 9,7 24,2 20,6 18,7 17,0 10 6 17 9 S 70 22 0,0
16.07.2018 15:00:00 23,8 8,9 25,3 20,1 18,6 17,0 11 6 21 11 N 70 22 0,0
16.07.2018 14:00:00 23,9 10,1 25,9 19,4 18,5 17,0 14 7 22 12 NW 47 50 0,0
16.07.2018 13:00:00 24,0 11,0 27,7 18,7 18,5 16,9 6 4 17 9 NNW 37 60 0,0
16.07.2018 12:00:00 22,1 10,7 25,6 18,2 18,6 16,9 5 3 10 5 SE 60 58 0,0
16.07.2018 11:00:00 20,4 11,9 23,8 17,9 18,7 16,9 4 2 8 5 W 54 59 0,0
16.07.2018 10:00:00 16,7 12,4 19,6 17,8 18,8 16,9 5 3 7 4 SSW 55 30 0,0
16.07.2018 09:00:00 14,7 12,6 15,8 17,9 18,9 16,9 4 2 6 4 E 54 0 0,0
16.07.2018 08:00:00 13,0 11,8 12,9 18,1 19,0 16,9 4 2 8 4 SE 41 0 0,0
16.07.2018 07:00:00 12,3 11,4 12,1 18,4 19,1 16,9 5 3 10 5 SSW 43 0 0,0
16.07.2018 06:00:00 11,0 10,5 10,7 18,6 19,2 16,9 0 0 9 5 N 9 0 0,0
16.07.2018 05:00:00 12,6 11,8 12,4 18,8 19,4 16,9 5 3 13 7 SSW 32 0 0,0
16.07.2018 04:00:00 12,7 12,0 12,7 19,1 19,5 16,9 6 3 10 6 S 16 0 0,0
16.07.2018 03:00:00 12,4 11,9 12,4 19,4 19,6 16,9 3 2 14 8 W 22 0 0,0
16.07.2018 02:00:00 12,7 11,7 12,5 19,7 19,7 16,9 9 5 15 8 SSE 48 0 0,0
16.07.2018 01:00:00 12,2 11,4 12,1 20,0 19,7 16,9 7 4 11 6 SSE 36 0 0,0
16.07.2018 00:00:00 12,2 11,7 12,0 20,4 19,8 16,9 6 3 9 5 S 34 0 0,0
15.07.2018 23:00:00 12,7 11,6 11,6 20,8 19,8 16,8 0 0 17 9 N 56 0 0,0
15.07.2018 22:00:00 14,1 11,8 13,2 21,2 19,7 16,8 10 6 30 16 SSE 70 0 0,0
15.07.2018 21:00:00 14,8 12,6 14,1 21,4 19,6 16,8 20 11 53 29 SSE 61 0 5,6
15.07.2018 20:00:00 14,9 12,9 14,9 21,5 19,5 16,8 23 12 46 25 S 1,3 0 3,7
15.07.2018 19:00:00 19,1 15,4 19,2 21,5 19,4 16,8 12 6 17 9 SE 41 0 0,0
15.07.2018 18:00:00 19,7 15,1 20,6 21,3 19,3 16,8 15 8 22 12 SE 54 11 0,0
15.07.2018 17:00:00 20,8 13,9 24,9 21,0 19,2 16,8 18 10 32 17 SSE 41 38 0,1
15.07.2018 16:00:00 19,7 15,4 20,1 20,7 19,1 16,8 12 6 19 10 SSE 20 7 0,0
15.07.2018 15:00:00 24,1 11,7 30,1 20,3 19,1 16,8 5 3 14 8 S 42 25 0,0
15.07.2018 14:00:00 21,8 11,2 25,2 19,8 19,1 16,8 10 5 21 12 N 60 38 0,0
15.07.2018 13:00:00 23,0 12,9 29,3 19,4 19,1 16,7 9 5 18 10 NNW 55 32 0,0
15.07.2018 12:00:00 21,1 12,0 25,1 19,1 19,1 16,7 10 6 16 9 N 45 35 0,0
15.07.2018 11:00:00 19,6 13,2 22,4 19,0 19,2 16,7 2 1 13 7 SSW 38 33 0,0
15.07.2018 10:00:00 17,7 13,9 20,6 19,0 19,3 16,7 8 5 16 9 NNE 30 12 0,0
15.07.2018 09:00:00 16,8 14,1 17,5 19,1 19,4 16,7 9 5 18 10 N 27 3 0,0
15.07.2018 08:00:00 16,3 13,1 16,3 19,3 19,5 16,7 17 9 28 15 SSE 31 7 0,0
15.07.2018 07:00:00 14,4 13,1 13,9 19,5 19,7 16,7 4 2 12 6 SSW 16 0 1,5
15.07.2018 06:00:00 14,9 12,4 14,8 19,8 19,8 16,7 8 4 11 6 SSE 23 0 0,0
15.07.2018 05:00:00 15,4 11,7 14,5 20,1 19,9 16,7 10 5 15 8 S 32 0 0,0
15.07.2018 04:00:00 14,0 12,0 13,5 20,4 19,9 16,6 9 5 21 11 S 23 0 0,0
15.07.2018 03:00:00 13,6 11,3 12,0 20,8 20,0 16,6 4 2 10 5 S 25 0 0,0
15.07.2018 02:00:00 14,0 12,0 13,3 21,2 20,0 16,6 7 4 10 6 SSE 23 0 0,0
15.07.2018 01:00:00 14,6 11,9 13,3 21,5 20,0 16,6 9 5 12 6 SSE 29 0 0,0
15.07.2018 00:00:00 14,6 11,8 13,0 21,9 19,9 16,6 6 3 11 6 SSE 27 0 0,0
14.07.2018 23:00:00 16,2 12,8 15,2 22,2 19,8 16,6 8 4 13 7 S 27 0 0,0
14.07.2018 22:00:00 17,2 12,9 16,3 22,4 19,7 16,6 8 4 12 7 ESE 34 0 0,0
14.07.2018 21:00:00 19,4 12,9 18,2 22,5 19,5 16,6 8 5 19 11 SE 39 8 0,0
14.07.2018 20:00:00 24,3 9,2 24,8 22,3 19,3 16,6 16 8 28 15 NNE 44 46 0,0
14.07.2018 19:00:00 25,7 9,1 27,4 22,0 19,2 16,6 15 8 23 13 NNW 45 39 0,0
14.07.2018 18:00:00 25,1 10,1 26,0 21,6 19,0 16,6 10 6 21 11 N 55 44 0,0
14.07.2018 17:00:00 26,6 10,0 30,5 21,1 18,9 16,6 10 5 18 10 NNW 53 58 0,0
14.07.2018 16:00:00 25,1 9,7 27,4 20,7 18,7 16,5 12 6 22 12 N 43 28 0,0
14.07.2018 15:00:00 25,3 10,2 27,5 20,3 18,6 16,5 6 3 23 12 S 49 27 0,0
14.07.2018 14:00:00 24,4 10,5 26,5 19,8 18,6 16,5 11 6 18 10 NNE 41 13 0,0
14.07.2018 13:00:00 23,6 11,5 24,6 19,3 18,6 16,5 13 7 27 15 N 45 30 0,0
14.07.2018 12:00:00 24,4 13,0 27,2 18,9 18,6 16,5 13 7 25 14 N 40 31 0,0
14.07.2018 11:00:00 21,7 12,2 24,2 18,6 18,7 16,5 8 4 15 8 S 34 39 0,0
14.07.2018 10:00:00 20,8 12,1 22,5 18,5 18,8 16,5 4 2 9 5 SSW 28 37 0,0
14.07.2018 09:00:00 18,7 11,9 20,4 18,5 18,9 16,5 6 3 13 7 SE 28 43 0,0
14.07.2018 08:00:00 15,6 11,7 15,4 18,7 19,0 16,5 7 4 12 7 E 34 18 0,0
14.07.2018 07:00:00 14,5 10,6 13,8 19,0 19,1 16,5 7 4 24 13 NNE 33 0 0,0
14.07.2018 06:00:00 13,4 11,0 13,1 19,3 19,2 16,5 5 3 14 8 S 28 0 0,0
14.07.2018 05:00:00 12,9 10,9 12,4 19,6 19,3 16,5 6 4 9 5 S 27 0 0,0
14.07.2018 04:00:00 11,9 10,3 11,4 20,0 19,4 16,4 7 4 9 5 SSE 25 0 0,0
14.07.2018 03:00:00 12,1 10,2 10,1 20,4 19,4 16,4 3 2 7 4 SW 25 0 0,0
14.07.2018 02:00:00 13,3 10,9 12,6 20,7 19,4 16,4 4 2 10 5 SSE 34 0 0,0
14.07.2018 01:00:00 13,3 10,5 12,6 21,1 19,4 16,4 5 3 13 7 SSE 33 0 0,0
14.07.2018 00:00:00 14,5 10,9 13,8 21,5 19,3 16,4 7 4 12 6 S 34 0 0,0
13.07.2018 23:00:00 16,4 10,3 15,5 21,9 19,2 16,4 8 5 14 8 SSE 43 0 0,0
13.07.2018 22:00:00 16,5 10,3 15,1 22,1 19,0 16,4 13 7 19 11 S 52 0 0,0
13.07.2018 21:00:00 17,8 10,1 16,6 22,2 18,8 16,4 12 7 16 8 SE 57 34 0,0
13.07.2018 20:00:00 23,6 8,2 23,7 22,1 18,5 16,4 11 6 22 12 N 70 59 0,0
13.07.2018 19:00:00 24,2 6,5 25,5 21,8 18,2 16,4 16 8 26 14 N 38 60 0,0
13.07.2018 18:00:00 25,1 6,7 26,9 21,3 18,0 16,4 18 10 26 14 N 39 60 0,0
13.07.2018 17:00:00 25,3 7,6 29,4 20,7 17,7 16,4 9 5 19 10 NW 46 57 0,0
13.07.2018 16:00:00 24,8 7,9 28,7 19,9 17,5 16,4 10 5 24 13 N 47 58 0,0
13.07.2018 15:00:00 23,9 7,5 28,4 19,1 17,4 16,4 12 6 26 14 NNE 29 59 0,0
13.07.2018 14:00:00 24,5 8,9 29,7 18,3 17,3 16,4 11 6 27 15 N 27 60 0,0
13.07.2018 13:00:00 23,7 8,9 28,0 17,6 17,3 16,4 9 5 22 12 NNE 33 60 0,0
13.07.2018 12:00:00 23,0 9,4 26,0 17,0 17,3 16,4 14 8 20 11 NNW 26 60 0,0
13.07.2018 11:00:00 20,5 8,4 24,9 16,6 17,4 16,4 7 4 14 8 N 36 60 0,0
13.07.2018 10:00:00 19,5 10,4 21,4 16,4 17,5 16,4 3 2 8 4 W 22 60 0,0
13.07.2018 09:00:00 16,5 9,9 17,8 16,4 17,7 16,4 4 2 8 5 E 23 60 0,0
13.07.2018 08:00:00 12,5 9,8 12,5 16,7 17,8 16,4 5 3 6 4 SE 16 51 0,0
13.07.2018 07:00:00 8,0 7,5 6,9 17,0 18,0 16,4 5 3 8 4 S 10 0 0,0
13.07.2018 06:00:00 7,5 6,6 6,4 17,3 18,1 16,4 5 3 8 5 SSE 14 0 0,0
13.07.2018 05:00:00 8,4 7,6 6,2 17,7 18,2 16,4 0 0 10 5 N 17 0 0,0
13.07.2018 04:00:00 8,2 7,3 6,0 18,1 18,3 16,4 3 1 9 5 SE 15 0 0,0
13.07.2018 03:00:00 9,5 9,3 7,5 18,5 18,4 16,4 6 3 7 4 S 10 0 0,0
13.07.2018 02:00:00 10,1 9,4 8,0 18,9 18,4 16,4 3 2 10 5 S 15 0 0,0
13.07.2018 01:00:00 10,8 10,1 8,2 19,3 18,4 16,4 4 2 9 5 SSE 18 0 0,0
13.07.2018 00:00:00 10,5 9,1 9,2 19,6 18,3 16,4 5 3 8 5 S 20 0 0,0
12.07.2018 23:00:00 13,0 10,4 10,7 20,0 18,2 16,4 6 3 12 7 SSE 37 0 0,0
12.07.2018 22:00:00 14,4 11,0 13,0 20,2 18,1 16,4 10 5 14 7 SSE 40 0 0,0
12.07.2018 21:00:00 16,0 11,6 14,6 20,3 18,0 16,4 6 4 12 6 SSE 46 24 0,0
12.07.2018 20:00:00 20,3 9,7 20,2 20,2 17,8 16,4 11 6 22 12 NW 57 60 0,0
12.07.2018 19:00:00 21,6 9,6 22,7 20,1 17,6 16,4 16 8 26 14 NNW 39 39 0,0
12.07.2018 18:00:00 20,8 9,2 20,7 19,8 17,4 16,4 16 9 28 15 N 51 18 0,0
12.07.2018 17:00:00 22,6 10,0 24,6 19,3 17,2 16,4 17 9 29 16 NNW 20 60 0,0
12.07.2018 16:00:00 22,1 9,6 24,4 18,7 17,0 16,4 18 10 29 15 N 13 60 0,0
12.07.2018 15:00:00 22,0 10,0 24,5 18,1 16,9 16,5 19 10 29 16 N 21 60 0,0
12.07.2018 14:00:00 21,3 9,0 24,7 17,5 16,9 16,5 17 9 31 17 N 20 60 0,0
12.07.2018 13:00:00 20,7 9,9 23,9 16,9 16,8 16,5 16 9 28 15 N 21 60 0,0
12.07.2018 12:00:00 20,0 9,5 23,1 16,4 16,9 16,5 11 6 17 9 NNW 34 60 0,0
12.07.2018 11:00:00 17,8 8,1 21,3 16,0 17,0 16,5 8 5 16 9 NNE 35 60 0,0
12.07.2018 10:00:00 16,8 8,5 19,0 15,7 17,1 16,5 8 4 13 7 N 38 60 0,0
12.07.2018 09:00:00 15,5 9,4 16,1 15,7 17,2 16,5 2 1 8 4 SE 40 60 0,0
12.07.2018 08:00:00 11,3 8,7 11,1 16,0 17,4 16,5 6 3 9 5 E 24 51 0,0
12.07.2018 07:00:00 6,8 6,5 6,1 16,3 17,5 16,5 5 3 6 3 S 4,8 0 0,0
12.07.2018 06:00:00 6,8 6,2 5,4 16,6 17,6 16,5 4 2 11 6 S 6 0 0,0
12.07.2018 05:00:00 7,4 6,5 6,2 17,0 17,7 16,5 9 5 12 6 S 14 0 0,0
12.07.2018 04:00:00 7,7 6,9 6,1 17,3 17,8 16,5 4 2 11 6 SSE 14 0 0,0
12.07.2018 03:00:00 8,7 7,8 7,2 17,7 17,9 16,5 6 4 12 7 S 14 0 0,0
12.07.2018 02:00:00 9,2 8,2 7,5 18,0 17,9 16,5 4 2 9 5 SSW 17 0 0,0
12.07.2018 01:00:00 10,1 9,0 9,3 18,3 17,9 16,5 2 1 4 2 SW 23 0 0,0
12.07.2018 00:00:00 9,7 8,6 8,5 18,6 17,9 16,5 2 1 5 3 S 19 0 0,0
11.07.2018 23:00:00 11,5 9,6 10,5 18,9 17,9 16,5 0 0 9 5 N 37 0 0,0
11.07.2018 22:00:00 12,8 10,3 12,3 19,0 17,8 16,5 9 5 11 6 SSE 31 0 0,0
11.07.2018 21:00:00 15,5 10,4 15,4 19,0 17,7 16,5 7 4 12 6 W 53 18 0,0
11.07.2018 20:00:00 18,9 7,8 19,7 19,0 17,6 16,5 3 2 21 12 W 58 60 0,0
11.07.2018 19:00:00 18,1 6,8 19,4 19,0 17,5 16,5 12 7 18 10 W 52 33 0,0
11.07.2018 18:00:00 18,2 8,2 20,0 18,8 17,3 16,5 13 7 25 14 W 51 29 0,0
11.07.2018 17:00:00 18,1 8,4 19,1 18,5 17,2 16,5 10 5 19 11 W 55 3 0,0
11.07.2018 16:00:00 17,9 8,5 19,9 18,1 17,2 16,5 11 6 31 17 W 53 37 0,0
11.07.2018 15:00:00 17,7 9,1 22,1 17,5 17,1 16,5 15 8 29 16 WNW 57 41 0,0
11.07.2018 14:00:00 18,4 10,3 24,6 17,0 17,2 16,5 8 5 21 11 NW 29 47 0,0
11.07.2018 13:00:00 16,5 9,6 21,1 16,7 17,2 16,5 6 4 16 9 NNE 32 18 0,0
11.07.2018 12:00:00 14,9 8,5 18,2 16,7 17,2 16,5 10 5 23 12 WNW 37 2 0,0
11.07.2018 11:00:00 13,6 8,9 14,5 16,6 17,3 16,5 8 5 14 8 W 37 0 0,0
11.07.2018 10:00:00 13,6 9,7 14,4 16,6 17,4 16,5 4 2 11 6 E 26 0 0,0
11.07.2018 09:00:00 12,9 10,1 13,4 16,7 17,5 16,5 0 0 7 4 N 24 0 0,0
11.07.2018 08:00:00 12,6 10,1 12,8 16,9 17,5 16,5 6 3 19 10 NNW 23 0 0,0
11.07.2018 07:00:00 12,3 11,5 12,3 17,0 17,6 16,5 7 4 18 10 W 9 0 0,0
11.07.2018 06:00:00 12,0 11,4 12,0 17,1 17,7 16,5 4 2 8 4 SSE 9 0 0,2
11.07.2018 05:00:00 12,3 11,6 12,4 17,3 17,7 16,5 4 2 8 4 E 6 0 0,0
11.07.2018 04:00:00 13,1 12,5 13,1 17,4 17,8 16,5 5 3 8 4 SSE 6 0 1,0
11.07.2018 03:00:00 13,1 12,7 13,3 17,6 17,8 16,5 3 2 9 5 SSW 7 0 3,2
11.07.2018 02:00:00 13,2 12,4 12,9 17,8 17,9 16,5 5 3 11 6 E 8 0 0,3
11.07.2018 01:00:00 13,4 12,7 13,3 18,0 17,9 16,5 5 3 8 5 SW 6 0 0,3
11.07.2018 00:00:00 13,6 12,5 13,3 18,1 17,9 16,5 6 4 11 6 ENE 4,2 0 0,4
10.07.2018 23:00:00 13,4 12,5 13,2 18,3 17,9 16,5 5 3 10 5 S 8 0 0,0
10.07.2018 22:00:00 13,8 12,7 13,5 18,5 17,9 16,5 6 3 15 8 SE 8 0 0,5
10.07.2018 21:00:00 15,0 11,8 13,6 18,6 17,9 16,5 18 10 27 15 NW 4,6 0 0,0
10.07.2018 20:00:00 16,7 12,5 16,2 18,6 17,8 16,5 9 5 13 7 SSE 41 3 0,0
10.07.2018 19:00:00 17,5 12,8 18,0 18,6 17,8 16,5 6 4 8 4 S 36 0 0,0
10.07.2018 18:00:00 18,7 9,7 19,5 18,5 17,7 16,5 3 2 19 10 NNE 45 0 0,0

tt = temperature
td = dewpoint
tt 5cm = temperature 5cm
tt -5cm = temperature -5cm
tt -20cm = temperature -20cm
tt -100cm = temperature -100cm
ff = wind speed
fx = gusts
dd = wind direction
vv = visibility
sd = sunshine duration
rr = precipitation

Next stations